ASA462 KEWR-KSEA
Flight info
| Callsign | ASA462 |
|---|---|
| Flight time | 5h 22m |
| Altitude | 32000 |
| Route | COATE Q436 RAAKK Q438 RUBYY IYGUR/N0451F340 KP06G KP12Y GTF MLP GLASR3 |
| Aircraft | B739/M-SDE2E3FGHIRWXY/LB1 |
Departure
| Time | 2026-04-23 16:31 |
|---|---|
| Airport | Newark Liberty International Airport (KEWR) |
Arrival
| Time | 2026-04-23 21:54 |
|---|---|
| Airport | Seattle–Tacoma International Airport (KSEA) |
| Time | Latitude | Longitude | Altitude | Speed | Heading |
|---|---|---|---|---|---|
| 2026-04-23 16:07 | 40.68793 | -74.17779 | 21 ft | 0 kts | 114° |
| 2026-04-23 16:19 | 40.68798 | -74.17797 | 21 ft | 4 kts | 100° |
| 2026-04-23 16:19 | 40.68796 | -74.17828 | 23 ft | 4 kts | 49° |
| 2026-04-23 16:20 | 40.68775 | -74.17844 | 21 ft | 4 kts | 7° |
| 2026-04-23 16:20 | 40.68750 | -74.17848 | 21 ft | 4 kts | 5° |
| 2026-04-23 16:20 | 40.68728 | -74.17850 | 23 ft | 2 kts | 2° |
| 2026-04-23 16:20 | 40.68706 | -74.17858 | 21 ft | 4 kts | 50° |
| 2026-04-23 16:21 | 40.68694 | -74.17888 | 22 ft | 4 kts | 79° |
| 2026-04-23 16:21 | 40.68692 | -74.17920 | 21 ft | 2 kts | 92° |
| 2026-04-23 16:21 | 40.68692 | -74.17921 | 21 ft | 1 kts | 92° |
| 2026-04-23 16:25 | 40.68692 | -74.17914 | 21 ft | 3 kts | 92° |
| 2026-04-23 16:25 | 40.68683 | -74.17854 | 21 ft | 10 kts | 108° |
| 2026-04-23 16:25 | 40.68656 | -74.17741 | 21 ft | 15 kts | 108° |
| 2026-04-23 16:25 | 40.68619 | -74.17620 | 21 ft | 14 kts | 116° |
| 2026-04-23 16:26 | 40.68574 | -74.17572 | 25 ft | 9 kts | 182° |
| 2026-04-23 16:26 | 40.68514 | -74.17607 | 21 ft | 12 kts | 206° |
| 2026-04-23 16:26 | 40.68433 | -74.17659 | 21 ft | 13 kts | 205° |
| 2026-04-23 16:26 | 40.68352 | -74.17709 | 22 ft | 13 kts | 205° |
| 2026-04-23 16:27 | 40.68275 | -74.17758 | 22 ft | 12 kts | 206° |
| 2026-04-23 16:27 | 40.68199 | -74.17807 | 21 ft | 12 kts | 206° |
| 2026-04-23 16:27 | 40.68125 | -74.17854 | 22 ft | 12 kts | 205° |
| 2026-04-23 16:27 | 40.68052 | -74.17900 | 23 ft | 11 kts | 205° |
| 2026-04-23 16:28 | 40.67981 | -74.17945 | 22 ft | 11 kts | 206° |
| 2026-04-23 16:28 | 40.67908 | -74.17991 | 21 ft | 11 kts | 206° |
| 2026-04-23 16:28 | 40.67835 | -74.17975 | 21 ft | 13 kts | 129° |
| 2026-04-23 16:28 | 40.67757 | -74.17968 | 22 ft | 12 kts | 205° |
| 2026-04-23 16:29 | 40.67681 | -74.18015 | 21 ft | 12 kts | 205° |
| 2026-04-23 16:29 | 40.67619 | -74.18046 | 22 ft | 7 kts | 180° |
| 2026-04-23 16:29 | 40.67578 | -74.18014 | 22 ft | 7 kts | 131° |
| 2026-04-23 16:29 | 40.67557 | -74.17959 | 22 ft | 7 kts | 108° |
| 2026-04-23 16:30 | 40.67582 | -74.17918 | 23 ft | 6 kts | 28° |
| 2026-04-23 16:30 | 40.67650 | -74.17874 | 22 ft | 29 kts | 25° |
| 2026-04-23 16:30 | 40.68043 | -74.17625 | 21 ft | 95 kts | 26° |
| 2026-04-23 16:30 | 40.68807 | -74.17137 | 25 ft | 147 kts | 26° |
| 2026-04-23 16:31 | 40.69866 | -74.16465 | 41 ft | 188 kts | 24° |
| 2026-04-23 16:31 | 40.71033 | -74.15698 | 628 ft | 189 kts | 24° |
| 2026-04-23 16:31 | 40.72170 | -74.14735 | 1077 ft | 204 kts | 41° |
| 2026-04-23 16:31 | 40.73149 | -74.13373 | 1631 ft | 210 kts | 43° |
| 2026-04-23 16:32 | 40.74211 | -74.11976 | 1940 ft | 223 kts | 40° |
| 2026-04-23 16:32 | 40.75390 | -74.10552 | 2207 ft | 235 kts | 31° |
| 2026-04-23 16:32 | 40.76911 | -74.09763 | 2467 ft | 245 kts | 0° |
| 2026-04-23 16:32 | 40.78555 | -74.10312 | 2718 ft | 255 kts | 322° |
| 2026-04-23 16:33 | 40.79550 | -74.12126 | 3534 ft | 250 kts | 289° |
| 2026-04-23 16:33 | 40.79979 | -74.14350 | 4218 ft | 255 kts | 284° |
| 2026-04-23 16:33 | 40.80331 | -74.16635 | 4872 ft | 257 kts | 283° |
| 2026-04-23 16:33 | 40.80619 | -74.18892 | 5678 ft | 254 kts | 282° |
| 2026-04-23 16:34 | 40.80891 | -74.21192 | 6389 ft | 254 kts | 283° |
| 2026-04-23 16:34 | 40.81548 | -74.23309 | 6988 ft | 252 kts | 310° |
| 2026-04-23 16:34 | 40.82732 | -74.25005 | 7651 ft | 252 kts | 314° |
| 2026-04-23 16:34 | 40.83946 | -74.26686 | 8296 ft | 253 kts | 314° |
| 2026-04-23 16:35 | 40.85162 | -74.28379 | 8939 ft | 254 kts | 313° |
| 2026-04-23 16:35 | 40.86377 | -74.30084 | 9589 ft | 255 kts | 313° |
| 2026-04-23 16:35 | 40.87581 | -74.31791 | 10283 ft | 255 kts | 313° |
| 2026-04-23 16:35 | 40.88803 | -74.33534 | 10527 ft | 271 kts | 313° |
| 2026-04-23 16:36 | 40.90125 | -74.35428 | 10671 ft | 289 kts | 312° |
| 2026-04-23 16:36 | 40.91528 | -74.37445 | 10846 ft | 307 kts | 312° |
| 2026-04-23 16:36 | 40.92872 | -74.39378 | 10998 ft | 321 kts | 312° |
| 2026-04-23 16:36 | 40.94403 | -74.41590 | 11384 ft | 329 kts | 312° |
| 2026-04-23 16:37 | 40.95958 | -74.43838 | 11900 ft | 333 kts | 312° |
| 2026-04-23 16:37 | 40.97525 | -74.46106 | 12488 ft | 335 kts | 312° |
| 2026-04-23 16:37 | 40.99074 | -74.48354 | 13069 ft | 336 kts | 312° |
| 2026-04-23 16:37 | 41.00673 | -74.50674 | 13588 ft | 338 kts | 312° |
| 2026-04-23 16:38 | 41.02240 | -74.52948 | 14114 ft | 340 kts | 312° |
| 2026-04-23 16:38 | 41.03834 | -74.55263 | 14646 ft | 342 kts | 312° |
| 2026-04-23 16:38 | 41.05439 | -74.57599 | 15161 ft | 343 kts | 312° |
| 2026-04-23 16:38 | 41.07052 | -74.59948 | 15655 ft | 346 kts | 313° |
| 2026-04-23 16:39 | 41.08676 | -74.62313 | 16115 ft | 348 kts | 313° |
| 2026-04-23 16:39 | 41.10312 | -74.64696 | 16584 ft | 350 kts | 313° |
| 2026-04-23 16:39 | 41.11954 | -74.67092 | 17039 ft | 352 kts | 313° |
| 2026-04-23 16:39 | 41.13555 | -74.69559 | 17473 ft | 354 kts | 308° |
| 2026-04-23 16:40 | 41.14876 | -74.72283 | 17897 ft | 358 kts | 302° |
| 2026-04-23 16:40 | 41.16111 | -74.75153 | 18317 ft | 360 kts | 302° |
| 2026-04-23 16:40 | 41.17356 | -74.78042 | 18704 ft | 362 kts | 302° |
| 2026-04-23 16:40 | 41.18613 | -74.80949 | 19105 ft | 364 kts | 302° |
| 2026-04-23 16:41 | 41.19877 | -74.83866 | 19524 ft | 366 kts | 302° |
| 2026-04-23 16:41 | 41.21152 | -74.86809 | 19901 ft | 368 kts | 302° |
| 2026-04-23 16:41 | 41.22432 | -74.89761 | 20268 ft | 370 kts | 302° |
| 2026-04-23 16:41 | 41.23721 | -74.92731 | 20633 ft | 373 kts | 302° |
| 2026-04-23 16:42 | 41.25003 | -74.95690 | 20997 ft | 374 kts | 302° |
| 2026-04-23 16:42 | 41.26303 | -74.98693 | 21360 ft | 376 kts | 302° |
| 2026-04-23 16:42 | 41.27606 | -75.01704 | 21679 ft | 378 kts | 302° |
| 2026-04-23 16:42 | 41.28918 | -75.04739 | 22017 ft | 380 kts | 302° |
| 2026-04-23 16:43 | 41.30240 | -75.07798 | 22334 ft | 382 kts | 302° |
| 2026-04-23 16:43 | 41.31563 | -75.10866 | 22680 ft | 383 kts | 302° |
| 2026-04-23 16:43 | 41.32890 | -75.13944 | 22982 ft | 385 kts | 302° |
| 2026-04-23 16:43 | 41.34225 | -75.17047 | 23281 ft | 387 kts | 302° |
| 2026-04-23 16:44 | 41.35560 | -75.20153 | 23587 ft | 388 kts | 302° |
| 2026-04-23 16:44 | 41.36906 | -75.23283 | 23878 ft | 390 kts | 302° |
| 2026-04-23 16:44 | 41.38235 | -75.26381 | 24193 ft | 391 kts | 302° |
| 2026-04-23 16:44 | 41.39586 | -75.29534 | 24485 ft | 393 kts | 302° |
| 2026-04-23 16:45 | 41.40942 | -75.32701 | 24765 ft | 395 kts | 303° |
| 2026-04-23 16:45 | 41.42306 | -75.35888 | 25064 ft | 396 kts | 303° |
| 2026-04-23 16:45 | 41.43670 | -75.39079 | 25335 ft | 398 kts | 303° |
| 2026-04-23 16:45 | 41.45043 | -75.42296 | 25610 ft | 399 kts | 303° |
| 2026-04-23 16:46 | 41.46419 | -75.45521 | 25876 ft | 401 kts | 303° |
| 2026-04-23 16:46 | 41.47758 | -75.48790 | 26130 ft | 404 kts | 300° |
| 2026-04-23 16:46 | 41.48827 | -75.52225 | 26445 ft | 407 kts | 295° |
| 2026-04-23 16:46 | 41.49815 | -75.55745 | 26839 ft | 405 kts | 295° |
| 2026-04-23 16:47 | 41.50794 | -75.59252 | 27257 ft | 402 kts | 296° |
| 2026-04-23 16:47 | 41.51773 | -75.62734 | 27669 ft | 399 kts | 296° |
| 2026-04-23 16:47 | 41.52756 | -75.66198 | 27972 ft | 400 kts | 296° |
| 2026-04-23 16:47 | 41.53745 | -75.69660 | 28281 ft | 399 kts | 296° |
| 2026-04-23 16:48 | 41.54735 | -75.73118 | 28672 ft | 397 kts | 297° |
| 2026-04-23 16:48 | 41.55717 | -75.76549 | 29063 ft | 395 kts | 297° |
| 2026-04-23 16:48 | 41.56693 | -75.79960 | 29412 ft | 393 kts | 297° |
| 2026-04-23 16:48 | 41.57667 | -75.83376 | 29731 ft | 392 kts | 297° |
| 2026-04-23 16:49 | 41.58309 | -75.85629 | 29953 ft | 392 kts | 297° |
| 2026-04-23 16:49 | 41.59585 | -75.90133 | 30323 ft | 391 kts | 297° |
| 2026-04-23 16:49 | 41.60539 | -75.93523 | 30660 ft | 389 kts | 297° |
| 2026-04-23 16:49 | 41.61489 | -75.96901 | 30976 ft | 387 kts | 297° |
| 2026-04-23 16:50 | 41.62431 | -76.00257 | 31271 ft | 386 kts | 297° |
| 2026-04-23 16:50 | 41.63376 | -76.03618 | 31490 ft | 386 kts | 297° |
| 2026-04-23 16:50 | 41.64322 | -76.06988 | 31694 ft | 387 kts | 297° |
| 2026-04-23 16:50 | 41.65263 | -76.10350 | 31953 ft | 385 kts | 297° |
| 2026-04-23 16:51 | 41.67133 | -76.17035 | 32070 ft | 385 kts | 297° |
| 2026-04-23 16:51 | 41.69001 | -76.23731 | 32062 ft | 383 kts | 298° |
| 2026-04-23 16:52 | 41.70881 | -76.30397 | 32054 ft | 382 kts | 298° |
| 2026-04-23 16:52 | 41.72757 | -76.37053 | 32054 ft | 382 kts | 298° |
| 2026-04-23 16:53 | 41.74617 | -76.43678 | 32062 ft | 383 kts | 298° |
| 2026-04-23 16:53 | 41.76488 | -76.50357 | 32068 ft | 384 kts | 297° |
| 2026-04-23 16:54 | 41.78353 | -76.57067 | 32073 ft | 385 kts | 297° |
| 2026-04-23 16:54 | 41.80219 | -76.63822 | 32073 ft | 387 kts | 297° |
| 2026-04-23 16:55 | 41.82084 | -76.70599 | 32063 ft | 388 kts | 297° |
| 2026-04-23 16:55 | 41.83942 | -76.77362 | 32063 ft | 390 kts | 297° |
| 2026-04-23 16:56 | 41.85812 | -76.84188 | 32068 ft | 390 kts | 297° |
| 2026-04-23 16:56 | 41.87368 | -76.89878 | 32070 ft | 391 kts | 297° |
| 2026-04-23 16:57 | 41.89236 | -76.96737 | 32071 ft | 392 kts | 297° |
| 2026-04-23 16:57 | 41.91394 | -77.04735 | 32080 ft | 392 kts | 297° |
| 2026-04-23 16:58 | 41.93252 | -77.11635 | 32073 ft | 394 kts | 297° |
| 2026-04-23 16:58 | 41.94795 | -77.17383 | 32072 ft | 393 kts | 297° |
| 2026-04-23 16:59 | 41.96649 | -77.24304 | 32066 ft | 394 kts | 297° |
| 2026-04-23 16:59 | 41.98801 | -77.32361 | 32081 ft | 395 kts | 296° |
| 2026-04-23 17:00 | 42.00354 | -77.38188 | 32066 ft | 395 kts | 297° |
| 2026-04-23 17:00 | 42.02200 | -77.45077 | 32073 ft | 394 kts | 297° |
| 2026-04-23 17:01 | 42.04085 | -77.51981 | 32071 ft | 392 kts | 297° |
| 2026-04-23 17:01 | 42.06262 | -77.59973 | 32085 ft | 390 kts | 297° |
| 2026-04-23 17:02 | 42.07821 | -77.65720 | 32082 ft | 390 kts | 297° |
| 2026-04-23 17:02 | 42.09667 | -77.72543 | 32096 ft | 391 kts | 297° |
| 2026-04-23 17:03 | 42.11523 | -77.79431 | 32090 ft | 391 kts | 297° |
| 2026-04-23 17:03 | 42.13372 | -77.86317 | 32109 ft | 392 kts | 297° |
| 2026-04-23 17:04 | 42.15227 | -77.93237 | 32094 ft | 393 kts | 297° |
| 2026-04-23 17:04 | 42.17066 | -78.00122 | 32098 ft | 394 kts | 297° |
| 2026-04-23 17:05 | 42.18917 | -78.07073 | 32120 ft | 394 kts | 297° |
| 2026-04-23 17:05 | 42.20770 | -78.14048 | 32094 ft | 396 kts | 297° |
| 2026-04-23 17:06 | 42.22623 | -78.21046 | 32097 ft | 397 kts | 297° |
| 2026-04-23 17:06 | 42.24463 | -78.28018 | 32096 ft | 397 kts | 296° |
| 2026-04-23 17:07 | 42.26242 | -78.35087 | 32087 ft | 397 kts | 295° |
| 2026-04-23 17:07 | 42.27987 | -78.42157 | 32091 ft | 396 kts | 295° |
| 2026-04-23 17:08 | 42.29729 | -78.49214 | 32097 ft | 395 kts | 295° |
| 2026-04-23 17:08 | 42.31450 | -78.56192 | 32091 ft | 394 kts | 295° |
| 2026-04-23 17:09 | 42.33178 | -78.63208 | 32089 ft | 393 kts | 295° |
| 2026-04-23 17:09 | 42.34898 | -78.70209 | 32094 ft | 392 kts | 295° |
| 2026-04-23 17:10 | 42.36613 | -78.77209 | 32092 ft | 392 kts | 295° |
| 2026-04-23 17:10 | 42.38314 | -78.84169 | 32081 ft | 393 kts | 295° |
| 2026-04-23 17:11 | 42.40028 | -78.91204 | 32089 ft | 394 kts | 295° |
| 2026-04-23 17:11 | 42.41751 | -78.98250 | 32083 ft | 396 kts | 295° |
| 2026-04-23 17:12 | 42.43484 | -79.05329 | 32087 ft | 396 kts | 295° |
| 2026-04-23 17:12 | 42.45213 | -79.12421 | 32086 ft | 397 kts | 295° |
| 2026-04-23 17:13 | 42.46932 | -79.19491 | 32085 ft | 398 kts | 294° |
| 2026-04-23 17:13 | 42.48661 | -79.26628 | 32084 ft | 399 kts | 294° |
| 2026-04-23 17:14 | 42.50390 | -79.33786 | 32081 ft | 400 kts | 294° |
| 2026-04-23 17:14 | 42.52104 | -79.40912 | 32083 ft | 400 kts | 294° |
| 2026-04-23 17:15 | 42.53827 | -79.48093 | 32082 ft | 401 kts | 294° |
| 2026-04-23 17:15 | 42.55547 | -79.55281 | 32080 ft | 401 kts | 294° |
| 2026-04-23 17:16 | 42.57265 | -79.62483 | 32084 ft | 401 kts | 294° |
| 2026-04-23 17:16 | 42.58991 | -79.69628 | 32088 ft | 401 kts | 294° |
| 2026-04-23 17:17 | 42.60714 | -79.76821 | 32092 ft | 402 kts | 292° |
| 2026-04-23 17:17 | 42.61521 | -79.84439 | 32115 ft | 412 kts | 280° |
| 2026-04-23 17:18 | 42.61976 | -79.96115 | 32093 ft | 413 kts | 280° |
| 2026-04-23 17:19 | 42.62299 | -80.03853 | 32085 ft | 414 kts | 280° |
| 2026-04-23 17:19 | 42.62630 | -80.11661 | 32080 ft | 414 kts | 279° |
| 2026-04-23 17:20 | 42.62957 | -80.19468 | 32084 ft | 414 kts | 279° |
| 2026-04-23 17:21 | 42.63594 | -80.35063 | 32084 ft | 415 kts | 279° |
| 2026-04-23 17:21 | 42.64061 | -80.46811 | 32075 ft | 416 kts | 279° |
| 2026-04-23 17:22 | 42.64499 | -80.58602 | 32074 ft | 417 kts | 279° |
| 2026-04-23 17:23 | 42.64902 | -80.70348 | 32075 ft | 417 kts | 278° |
| 2026-04-23 17:24 | 42.65300 | -80.82148 | 32064 ft | 417 kts | 278° |
| 2026-04-23 17:24 | 42.65687 | -80.93938 | 32069 ft | 416 kts | 278° |
| 2026-04-23 17:25 | 42.66061 | -81.05669 | 32066 ft | 416 kts | 278° |
| 2026-04-23 17:26 | 42.66542 | -81.21366 | 32065 ft | 416 kts | 278° |
| 2026-04-23 17:27 | 42.67316 | -81.32996 | 32068 ft | 412 kts | 284° |
| 2026-04-23 17:27 | 42.68262 | -81.40690 | 32055 ft | 413 kts | 284° |
| 2026-04-23 17:28 | 42.69199 | -81.48415 | 32055 ft | 415 kts | 283° |
| 2026-04-23 17:28 | 42.70103 | -81.56167 | 32059 ft | 416 kts | 283° |
| 2026-04-23 17:29 | 42.70983 | -81.63892 | 32057 ft | 417 kts | 283° |
| 2026-04-23 17:30 | 42.72304 | -81.75600 | 32057 ft | 418 kts | 283° |
| 2026-04-23 17:30 | 42.73617 | -81.87342 | 32051 ft | 419 kts | 283° |
| 2026-04-23 17:31 | 42.74481 | -81.95135 | 32048 ft | 420 kts | 283° |
| 2026-04-23 17:31 | 42.75345 | -82.02984 | 32044 ft | 420 kts | 282° |
| 2026-04-23 17:32 | 42.76206 | -82.10847 | 32045 ft | 420 kts | 282° |
| 2026-04-23 17:32 | 42.77060 | -82.18695 | 32038 ft | 420 kts | 282° |
| 2026-04-23 17:33 | 42.77904 | -82.26503 | 32037 ft | 419 kts | 282° |
| 2026-04-23 17:33 | 42.78747 | -82.34348 | 32036 ft | 419 kts | 282° |
| 2026-04-23 17:34 | 42.79586 | -82.42201 | 32048 ft | 419 kts | 282° |
| 2026-04-23 17:35 | 42.80787 | -82.53972 | 32047 ft | 419 kts | 281° |
| 2026-04-23 17:35 | 42.82245 | -82.65607 | 32047 ft | 417 kts | 284° |
| 2026-04-23 17:36 | 42.83344 | -82.73358 | 32047 ft | 417 kts | 284° |
| 2026-04-23 17:36 | 42.84415 | -82.81125 | 32035 ft | 417 kts | 283° |
| 2026-04-23 17:37 | 42.85464 | -82.88896 | 32035 ft | 417 kts | 283° |
| 2026-04-23 17:38 | 42.87015 | -83.00512 | 32030 ft | 417 kts | 283° |
| 2026-04-23 17:38 | 42.88049 | -83.08302 | 32027 ft | 418 kts | 283° |
| 2026-04-23 17:39 | 42.89077 | -83.16096 | 32030 ft | 417 kts | 283° |
| 2026-04-23 17:39 | 42.90102 | -83.23885 | 32031 ft | 417 kts | 283° |
| 2026-04-23 17:40 | 42.91090 | -83.31643 | 32024 ft | 418 kts | 281° |
| 2026-04-23 17:40 | 42.91826 | -83.39519 | 32029 ft | 419 kts | 279° |
| 2026-04-23 17:41 | 42.92488 | -83.47418 | 32023 ft | 419 kts | 279° |
| 2026-04-23 17:41 | 42.93502 | -83.59209 | 32020 ft | 419 kts | 279° |
| 2026-04-23 17:42 | 42.94533 | -83.71049 | 32013 ft | 419 kts | 279° |
| 2026-04-23 17:43 | 42.95216 | -83.78939 | 32003 ft | 418 kts | 279° |
| 2026-04-23 17:43 | 42.95887 | -83.86767 | 32007 ft | 418 kts | 279° |
| 2026-04-23 17:44 | 42.96553 | -83.94627 | 32006 ft | 417 kts | 279° |
| 2026-04-23 17:44 | 42.97547 | -84.06444 | 32003 ft | 418 kts | 278° |
| 2026-04-23 17:45 | 42.98532 | -84.18301 | 32001 ft | 419 kts | 278° |
| 2026-04-23 17:46 | 42.99508 | -84.30197 | 32002 ft | 420 kts | 278° |
| 2026-04-23 17:46 | 43.00145 | -84.38065 | 31998 ft | 421 kts | 278° |
| 2026-04-23 17:47 | 43.00785 | -84.46012 | 31996 ft | 421 kts | 278° |
| 2026-04-23 17:48 | 43.02156 | -84.57791 | 32006 ft | 418 kts | 290° |
| 2026-04-23 17:48 | 43.04695 | -84.64920 | 31995 ft | 418 kts | 303° |
| 2026-04-23 17:49 | 43.07926 | -84.71452 | 31992 ft | 418 kts | 303° |
| 2026-04-23 17:49 | 43.11191 | -84.78026 | 31984 ft | 418 kts | 303° |
| 2026-04-23 17:50 | 43.14435 | -84.84631 | 31981 ft | 418 kts | 303° |
| 2026-04-23 17:50 | 43.19272 | -84.94561 | 31985 ft | 418 kts | 303° |
| 2026-04-23 17:51 | 43.22469 | -85.01149 | 31976 ft | 418 kts | 303° |
| 2026-04-23 17:52 | 43.27295 | -85.11123 | 31973 ft | 418 kts | 303° |
| 2026-04-23 17:52 | 43.32116 | -85.21118 | 31970 ft | 419 kts | 302° |
| 2026-04-23 17:53 | 43.36908 | -85.31091 | 31966 ft | 419 kts | 302° |
| 2026-04-23 17:54 | 43.40118 | -85.37791 | 31961 ft | 419 kts | 302° |
| 2026-04-23 17:54 | 43.44903 | -85.47805 | 31964 ft | 420 kts | 302° |
| 2026-04-23 17:55 | 43.49706 | -85.57891 | 31964 ft | 421 kts | 302° |
| 2026-04-23 17:56 | 43.52909 | -85.64639 | 31961 ft | 421 kts | 302° |
| 2026-04-23 17:56 | 43.57688 | -85.74734 | 31953 ft | 421 kts | 302° |
| 2026-04-23 17:57 | 43.60883 | -85.81499 | 31949 ft | 421 kts | 302° |
| 2026-04-23 17:58 | 43.65665 | -85.91658 | 31956 ft | 421 kts | 302° |
| 2026-04-23 17:58 | 43.68849 | -85.98440 | 31953 ft | 421 kts | 302° |
| 2026-04-23 17:59 | 43.72009 | -86.05187 | 31955 ft | 421 kts | 301° |
| 2026-04-23 17:59 | 43.75185 | -86.11983 | 31965 ft | 421 kts | 301° |
| 2026-04-23 18:00 | 43.78354 | -86.18783 | 31964 ft | 421 kts | 301° |
| 2026-04-23 18:00 | 43.81529 | -86.25613 | 31960 ft | 422 kts | 301° |
| 2026-04-23 18:01 | 43.84679 | -86.32404 | 31961 ft | 422 kts | 301° |
| 2026-04-23 18:01 | 43.87846 | -86.39249 | 31966 ft | 422 kts | 301° |
| 2026-04-23 18:02 | 43.91012 | -86.46100 | 31964 ft | 422 kts | 301° |
| 2026-04-23 18:02 | 43.94171 | -86.52956 | 31959 ft | 422 kts | 301° |
| 2026-04-23 18:03 | 43.97306 | -86.59774 | 31962 ft | 422 kts | 301° |
| 2026-04-23 18:03 | 44.00457 | -86.66646 | 31965 ft | 422 kts | 301° |
| 2026-04-23 18:04 | 44.03604 | -86.73525 | 31952 ft | 422 kts | 301° |
| 2026-04-23 18:04 | 44.06742 | -86.80402 | 31951 ft | 422 kts | 301° |
| 2026-04-23 18:05 | 44.09678 | -86.86850 | 31956 ft | 422 kts | 301° |
| 2026-04-23 18:05 | 44.12817 | -86.93760 | 31951 ft | 423 kts | 300° |
| 2026-04-23 18:06 | 44.15952 | -87.00677 | 31946 ft | 423 kts | 300° |
| 2026-04-23 18:06 | 44.19093 | -87.07623 | 31951 ft | 423 kts | 300° |
| 2026-04-23 18:07 | 44.22228 | -87.14572 | 31936 ft | 424 kts | 300° |
| 2026-04-23 18:07 | 44.25342 | -87.21496 | 31925 ft | 424 kts | 300° |
| 2026-04-23 18:08 | 44.27946 | -87.27297 | 31921 ft | 424 kts | 300° |
| 2026-04-23 18:08 | 44.31603 | -87.35464 | 31914 ft | 425 kts | 299° |
| 2026-04-23 18:09 | 44.34729 | -87.42460 | 31919 ft | 424 kts | 299° |
| 2026-04-23 18:09 | 44.37827 | -87.49413 | 31917 ft | 424 kts | 299° |
| 2026-04-23 18:10 | 44.40941 | -87.56418 | 31908 ft | 424 kts | 299° |
| 2026-04-23 18:10 | 44.44050 | -87.63429 | 31906 ft | 424 kts | 299° |
| 2026-04-23 18:11 | 44.47153 | -87.70444 | 31905 ft | 424 kts | 299° |
| 2026-04-23 18:11 | 44.50229 | -87.77415 | 31895 ft | 424 kts | 299° |
| 2026-04-23 18:12 | 44.53324 | -87.84448 | 31892 ft | 424 kts | 299° |
| 2026-04-23 18:12 | 44.56419 | -87.91497 | 31889 ft | 424 kts | 299° |
| 2026-04-23 18:13 | 44.59489 | -87.98505 | 31881 ft | 425 kts | 299° |
| 2026-04-23 18:13 | 44.62575 | -88.05567 | 31875 ft | 425 kts | 299° |
| 2026-04-23 18:14 | 44.65656 | -88.12637 | 31882 ft | 424 kts | 299° |
| 2026-04-23 18:14 | 44.68732 | -88.19712 | 31880 ft | 425 kts | 299° |
| 2026-04-23 18:15 | 44.71809 | -88.26806 | 31881 ft | 425 kts | 299° |
| 2026-04-23 18:15 | 44.74861 | -88.33863 | 31883 ft | 425 kts | 299° |
| 2026-04-23 18:16 | 44.77930 | -88.40972 | 31879 ft | 425 kts | 299° |
| 2026-04-23 18:16 | 44.80993 | -88.48086 | 31879 ft | 425 kts | 299° |
| 2026-04-23 18:17 | 44.85572 | -88.58758 | 31880 ft | 424 kts | 299° |
| 2026-04-23 18:17 | 44.88597 | -88.65828 | 31883 ft | 424 kts | 299° |
| 2026-04-23 18:18 | 44.91639 | -88.72958 | 31875 ft | 424 kts | 298° |
| 2026-04-23 18:18 | 44.94675 | -88.80091 | 31874 ft | 424 kts | 298° |
| 2026-04-23 18:19 | 44.97707 | -88.87233 | 31866 ft | 424 kts | 299° |
| 2026-04-23 18:19 | 45.00714 | -88.94333 | 31863 ft | 424 kts | 299° |
| 2026-04-23 18:20 | 45.03733 | -89.01478 | 31852 ft | 424 kts | 298° |
| 2026-04-23 18:20 | 45.06523 | -89.08789 | 31833 ft | 421 kts | 288° |
| 2026-04-23 18:21 | 45.08242 | -89.16688 | 31851 ft | 420 kts | 285° |
| 2026-04-23 18:21 | 45.09882 | -89.24570 | 31847 ft | 420 kts | 285° |
| 2026-04-23 18:22 | 45.11549 | -89.32507 | 31834 ft | 421 kts | 285° |
| 2026-04-23 18:22 | 45.13224 | -89.40434 | 31832 ft | 421 kts | 285° |
| 2026-04-23 18:23 | 45.15741 | -89.52342 | 31829 ft | 421 kts | 285° |
| 2026-04-23 18:24 | 45.18238 | -89.64225 | 31816 ft | 422 kts | 285° |
| 2026-04-23 18:25 | 45.20741 | -89.76194 | 31803 ft | 422 kts | 285° |
| 2026-04-23 18:25 | 45.22401 | -89.84177 | 31799 ft | 422 kts | 285° |
| 2026-04-23 18:26 | 45.24058 | -89.92179 | 31788 ft | 422 kts | 285° |
| 2026-04-23 18:26 | 45.25694 | -90.00114 | 31783 ft | 422 kts | 285° |
| 2026-04-23 18:27 | 45.27334 | -90.08093 | 31781 ft | 421 kts | 285° |
| 2026-04-23 18:27 | 45.28968 | -90.16076 | 31774 ft | 421 kts | 285° |
| 2026-04-23 18:28 | 45.30597 | -90.24061 | 31777 ft | 421 kts | 285° |
| 2026-04-23 18:28 | 45.32209 | -90.31993 | 31771 ft | 421 kts | 285° |
| 2026-04-23 18:29 | 45.33824 | -90.39986 | 31770 ft | 421 kts | 284° |
| 2026-04-23 18:29 | 45.35437 | -90.47995 | 31760 ft | 422 kts | 284° |
| 2026-04-23 18:30 | 45.37046 | -90.56015 | 31750 ft | 422 kts | 284° |
| 2026-04-23 18:30 | 45.38642 | -90.64000 | 31749 ft | 422 kts | 284° |
| 2026-04-23 18:31 | 45.40241 | -90.72041 | 31741 ft | 423 kts | 284° |
| 2026-04-23 18:31 | 45.41835 | -90.80087 | 31739 ft | 423 kts | 284° |
| 2026-04-23 18:32 | 45.43426 | -90.88149 | 31734 ft | 423 kts | 284° |
| 2026-04-23 18:32 | 45.45003 | -90.96169 | 31730 ft | 423 kts | 283° |
| 2026-04-23 18:33 | 45.46582 | -91.04234 | 31728 ft | 423 kts | 283° |
| 2026-04-23 18:33 | 45.48157 | -91.12317 | 31730 ft | 423 kts | 283° |
| 2026-04-23 18:34 | 45.49725 | -91.20395 | 31732 ft | 423 kts | 283° |
| 2026-04-23 18:34 | 45.51279 | -91.28433 | 31720 ft | 423 kts | 283° |
| 2026-04-23 18:35 | 45.52836 | -91.36520 | 31721 ft | 423 kts | 283° |
| 2026-04-23 18:35 | 45.54386 | -91.44608 | 31717 ft | 423 kts | 282° |
| 2026-04-23 18:36 | 45.55933 | -91.52709 | 31714 ft | 423 kts | 282° |
| 2026-04-23 18:36 | 45.57465 | -91.60770 | 31704 ft | 424 kts | 282° |
| 2026-04-23 18:37 | 45.59004 | -91.68904 | 31703 ft | 424 kts | 282° |
| 2026-04-23 18:37 | 45.60536 | -91.77033 | 31706 ft | 424 kts | 282° |
| 2026-04-23 18:38 | 45.62063 | -91.85171 | 31695 ft | 424 kts | 282° |
| 2026-04-23 18:38 | 45.63575 | -91.93266 | 31690 ft | 424 kts | 282° |
| 2026-04-23 18:39 | 45.65088 | -92.01411 | 31682 ft | 424 kts | 282° |
| 2026-04-23 18:39 | 45.66597 | -92.09552 | 31680 ft | 424 kts | 281° |
| 2026-04-23 18:40 | 45.68101 | -92.17711 | 31677 ft | 424 kts | 281° |
| 2026-04-23 18:40 | 45.69587 | -92.25807 | 31684 ft | 424 kts | 281° |
| 2026-04-23 18:41 | 45.71081 | -92.33980 | 31665 ft | 425 kts | 281° |
| 2026-04-23 18:41 | 45.72571 | -92.42175 | 31674 ft | 426 kts | 281° |
| 2026-04-23 18:42 | 45.74057 | -92.50377 | 31657 ft | 426 kts | 281° |
| 2026-04-23 18:42 | 45.75529 | -92.58536 | 31660 ft | 426 kts | 281° |
| 2026-04-23 18:43 | 45.77006 | -92.66752 | 31649 ft | 426 kts | 281° |
| 2026-04-23 18:43 | 45.78473 | -92.74966 | 31666 ft | 426 kts | 280° |
| 2026-04-23 18:44 | 45.79937 | -92.83194 | 31660 ft | 426 kts | 280° |
| 2026-04-23 18:44 | 45.81385 | -92.91372 | 31652 ft | 427 kts | 280° |
| 2026-04-23 18:45 | 45.82839 | -92.99622 | 31651 ft | 427 kts | 279° |
| 2026-04-23 18:45 | 45.84291 | -93.07893 | 31647 ft | 428 kts | 279° |
| 2026-04-23 18:46 | 45.85727 | -93.16116 | 31657 ft | 428 kts | 279° |
| 2026-04-23 18:46 | 45.87169 | -93.24415 | 31664 ft | 429 kts | 279° |
| 2026-04-23 18:47 | 45.88605 | -93.32716 | 31659 ft | 430 kts | 279° |
| 2026-04-23 18:47 | 45.90041 | -93.41052 | 31658 ft | 431 kts | 279° |
| 2026-04-23 18:48 | 45.91473 | -93.49413 | 31665 ft | 432 kts | 278° |
| 2026-04-23 18:48 | 45.92894 | -93.57738 | 31654 ft | 433 kts | 278° |
| 2026-04-23 18:49 | 45.94318 | -93.66118 | 31646 ft | 434 kts | 278° |
| 2026-04-23 18:49 | 45.95742 | -93.74551 | 31612 ft | 435 kts | 278° |
| 2026-04-23 18:50 | 45.96923 | -93.81579 | 31609 ft | 436 kts | 278° |
| 2026-04-23 18:50 | 45.98573 | -93.91428 | 31600 ft | 435 kts | 278° |
| 2026-04-23 18:51 | 45.99981 | -93.99891 | 31590 ft | 436 kts | 278° |
| 2026-04-23 18:51 | 46.01382 | -94.08482 | 31749 ft | 445 kts | 277° |
| 2026-04-23 18:51 | 46.02080 | -94.12817 | 31959 ft | 445 kts | 277° |
| 2026-04-23 18:52 | 46.02778 | -94.17151 | 32289 ft | 443 kts | 277° |
| 2026-04-23 18:52 | 46.03471 | -94.21458 | 32659 ft | 440 kts | 277° |
| 2026-04-23 18:52 | 46.04148 | -94.25672 | 33019 ft | 436 kts | 277° |
| 2026-04-23 18:52 | 46.04827 | -94.29909 | 33341 ft | 434 kts | 277° |
| 2026-04-23 18:53 | 46.05502 | -94.34142 | 33561 ft | 432 kts | 277° |
| 2026-04-23 18:53 | 46.06846 | -94.42618 | 33557 ft | 436 kts | 277° |
| 2026-04-23 18:54 | 46.08188 | -94.51113 | 33549 ft | 434 kts | 277° |
| 2026-04-23 18:54 | 46.09514 | -94.59528 | 33555 ft | 432 kts | 276° |
| 2026-04-23 18:55 | 46.10835 | -94.67968 | 33554 ft | 432 kts | 276° |
| 2026-04-23 18:55 | 46.12148 | -94.76398 | 33549 ft | 431 kts | 276° |
| 2026-04-23 18:56 | 46.13231 | -94.83390 | 33553 ft | 430 kts | 276° |
| 2026-04-23 18:56 | 46.14741 | -94.93195 | 33545 ft | 431 kts | 276° |
| 2026-04-23 18:57 | 46.16035 | -95.01640 | 33546 ft | 432 kts | 276° |
| 2026-04-23 18:57 | 46.17326 | -95.10111 | 33544 ft | 433 kts | 275° |
| 2026-04-23 18:58 | 46.18618 | -95.18628 | 33544 ft | 435 kts | 275° |
| 2026-04-23 18:58 | 46.19896 | -95.27100 | 33530 ft | 436 kts | 275° |
| 2026-04-23 18:59 | 46.21181 | -95.35659 | 33530 ft | 436 kts | 275° |
| 2026-04-23 18:59 | 46.22459 | -95.44222 | 33512 ft | 437 kts | 275° |
| 2026-04-23 19:00 | 46.23733 | -95.52793 | 33516 ft | 436 kts | 275° |
| 2026-04-23 19:00 | 46.24990 | -95.61308 | 33507 ft | 436 kts | 274° |
| 2026-04-23 19:01 | 46.26247 | -95.69872 | 33504 ft | 436 kts | 274° |
| 2026-04-23 19:01 | 46.27498 | -95.78439 | 33506 ft | 435 kts | 274° |
| 2026-04-23 19:02 | 46.28530 | -95.85547 | 33502 ft | 435 kts | 274° |
| 2026-04-23 19:02 | 46.29965 | -95.95491 | 33482 ft | 435 kts | 274° |
| 2026-04-23 19:03 | 46.31193 | -96.04048 | 33475 ft | 434 kts | 274° |
| 2026-04-23 19:03 | 46.32413 | -96.12590 | 33478 ft | 434 kts | 274° |
| 2026-04-23 19:04 | 46.33625 | -96.21127 | 33479 ft | 433 kts | 274° |
| 2026-04-23 19:04 | 46.34821 | -96.29611 | 33478 ft | 433 kts | 274° |
| 2026-04-23 19:05 | 46.36020 | -96.38151 | 33477 ft | 433 kts | 273° |
| 2026-04-23 19:05 | 46.37213 | -96.46707 | 33468 ft | 434 kts | 273° |
| 2026-04-23 19:06 | 46.38402 | -96.55273 | 33470 ft | 434 kts | 273° |
| 2026-04-23 19:06 | 46.39576 | -96.63793 | 33467 ft | 434 kts | 273° |
| 2026-04-23 19:07 | 46.40752 | -96.72371 | 33472 ft | 435 kts | 272° |
| 2026-04-23 19:07 | 46.41925 | -96.80975 | 33467 ft | 435 kts | 272° |
| 2026-04-23 19:08 | 46.43090 | -96.89576 | 33469 ft | 435 kts | 272° |
| 2026-04-23 19:08 | 46.44243 | -96.98132 | 33470 ft | 435 kts | 272° |
| 2026-04-23 19:09 | 46.45397 | -97.06752 | 33479 ft | 436 kts | 272° |
| 2026-04-23 19:09 | 46.46546 | -97.15400 | 33474 ft | 437 kts | 272° |
| 2026-04-23 19:10 | 46.47690 | -97.24055 | 33479 ft | 437 kts | 271° |
| 2026-04-23 19:10 | 46.48827 | -97.32697 | 33478 ft | 437 kts | 271° |
| 2026-04-23 19:11 | 46.49953 | -97.41317 | 33477 ft | 438 kts | 271° |
| 2026-04-23 19:11 | 46.51081 | -97.49998 | 33478 ft | 438 kts | 271° |
| 2026-04-23 19:12 | 46.52014 | -97.57227 | 33488 ft | 438 kts | 271° |
| 2026-04-23 19:12 | 46.53318 | -97.67393 | 33489 ft | 439 kts | 271° |
| 2026-04-23 19:13 | 46.54420 | -97.76045 | 33493 ft | 438 kts | 271° |
| 2026-04-23 19:13 | 46.55523 | -97.84744 | 33496 ft | 438 kts | 271° |
| 2026-04-23 19:14 | 46.56616 | -97.93433 | 33493 ft | 437 kts | 270° |
| 2026-04-23 19:14 | 46.57702 | -98.02122 | 33497 ft | 436 kts | 270° |
| 2026-04-23 19:15 | 46.58766 | -98.10697 | 33498 ft | 436 kts | 270° |
| 2026-04-23 19:15 | 46.59835 | -98.19369 | 33496 ft | 436 kts | 270° |
| 2026-04-23 19:16 | 46.60898 | -98.28032 | 33498 ft | 435 kts | 270° |
| 2026-04-23 19:16 | 46.61953 | -98.36703 | 33497 ft | 435 kts | 270° |
| 2026-04-23 19:17 | 46.63522 | -98.49695 | 33496 ft | 434 kts | 270° |
| 2026-04-23 19:17 | 46.64553 | -98.58297 | 33503 ft | 434 kts | 270° |
| 2026-04-23 19:18 | 46.65583 | -98.66956 | 33511 ft | 434 kts | 270° |
| 2026-04-23 19:18 | 46.66607 | -98.75626 | 33512 ft | 435 kts | 270° |
| 2026-04-23 19:19 | 46.68133 | -98.88650 | 33517 ft | 435 kts | 270° |
| 2026-04-23 19:20 | 46.69640 | -99.01639 | 33519 ft | 436 kts | 270° |
| 2026-04-23 19:20 | 46.70642 | -99.10353 | 33531 ft | 436 kts | 270° |
| 2026-04-23 19:21 | 46.72133 | -99.23437 | 33526 ft | 436 kts | 270° |
| 2026-04-23 19:22 | 46.73111 | -99.32094 | 33532 ft | 436 kts | 270° |
| 2026-04-23 19:22 | 46.74574 | -99.45161 | 33543 ft | 435 kts | 270° |
| 2026-04-23 19:23 | 46.75540 | -99.53863 | 33552 ft | 434 kts | 270° |
| 2026-04-23 19:24 | 46.76967 | -99.66841 | 33557 ft | 434 kts | 270° |
| 2026-04-23 19:24 | 46.78384 | -99.79858 | 33561 ft | 433 kts | 270° |
| 2026-04-23 19:25 | 46.80244 | -99.97180 | 33573 ft | 432 kts | 270° |
| 2026-04-23 19:26 | 46.81616 | -100.10119 | 33602 ft | 431 kts | 270° |
| 2026-04-23 19:27 | 46.83877 | -100.31778 | 33633 ft | 433 kts | 270° |
| 2026-04-23 19:28 | 46.85663 | -100.49189 | 33639 ft | 436 kts | 270° |
| 2026-04-23 19:29 | 46.86999 | -100.62374 | 33639 ft | 438 kts | 270° |
| 2026-04-23 19:30 | 46.88326 | -100.75620 | 33639 ft | 440 kts | 271° |
| 2026-04-23 19:31 | 46.89633 | -100.88847 | 33622 ft | 440 kts | 270° |
| 2026-04-23 19:31 | 46.90501 | -100.97705 | 33626 ft | 440 kts | 271° |
| 2026-04-23 19:32 | 46.91360 | -101.06551 | 33631 ft | 439 kts | 271° |
| 2026-04-23 19:32 | 46.92211 | -101.15396 | 33625 ft | 439 kts | 271° |
| 2026-04-23 19:33 | 46.93050 | -101.24181 | 33628 ft | 439 kts | 271° |
| 2026-04-23 19:33 | 46.94305 | -101.37468 | 33629 ft | 439 kts | 271° |
| 2026-04-23 19:34 | 46.95134 | -101.46324 | 33629 ft | 440 kts | 271° |
| 2026-04-23 19:35 | 46.96359 | -101.59586 | 33632 ft | 440 kts | 271° |
| 2026-04-23 19:35 | 46.97173 | -101.68475 | 33639 ft | 441 kts | 271° |
| 2026-04-23 19:36 | 46.97980 | -101.77375 | 33641 ft | 442 kts | 271° |
| 2026-04-23 19:36 | 46.98782 | -101.86290 | 33641 ft | 442 kts | 271° |
| 2026-04-23 19:37 | 46.99573 | -101.95158 | 33648 ft | 442 kts | 271° |
| 2026-04-23 19:37 | 47.00362 | -102.04079 | 33659 ft | 442 kts | 271° |
| 2026-04-23 19:38 | 47.01152 | -102.13003 | 33654 ft | 442 kts | 272° |
| 2026-04-23 19:38 | 47.01940 | -102.21944 | 33660 ft | 442 kts | 272° |
| 2026-04-23 19:39 | 47.02718 | -102.30829 | 33655 ft | 443 kts | 272° |
| 2026-04-23 19:39 | 47.03492 | -102.39801 | 33657 ft | 444 kts | 272° |
| 2026-04-23 19:40 | 47.04259 | -102.48781 | 33653 ft | 444 kts | 272° |
| 2026-04-23 19:40 | 47.05019 | -102.57764 | 33657 ft | 444 kts | 272° |
| 2026-04-23 19:41 | 47.05767 | -102.66691 | 33653 ft | 444 kts | 272° |
| 2026-04-23 19:41 | 47.06515 | -102.75686 | 33658 ft | 444 kts | 272° |
| 2026-04-23 19:42 | 47.07253 | -102.84661 | 33663 ft | 443 kts | 272° |
| 2026-04-23 19:42 | 47.07985 | -102.93633 | 33669 ft | 443 kts | 272° |
| 2026-04-23 19:43 | 47.08710 | -103.02616 | 33662 ft | 442 kts | 272° |
| 2026-04-23 19:43 | 47.09421 | -103.11514 | 33670 ft | 442 kts | 272° |
| 2026-04-23 19:44 | 47.10128 | -103.20456 | 33681 ft | 441 kts | 272° |
| 2026-04-23 19:44 | 47.10827 | -103.29386 | 33682 ft | 440 kts | 272° |
| 2026-04-23 19:45 | 47.11519 | -103.38310 | 33688 ft | 439 kts | 272° |
| 2026-04-23 19:45 | 47.12194 | -103.47140 | 33699 ft | 438 kts | 273° |
| 2026-04-23 19:46 | 47.12870 | -103.56030 | 33714 ft | 438 kts | 273° |
| 2026-04-23 19:46 | 47.13538 | -103.64916 | 33722 ft | 438 kts | 273° |
| 2026-04-23 19:47 | 47.14087 | -103.72303 | 33727 ft | 438 kts | 273° |
| 2026-04-23 19:47 | 47.14849 | -103.82636 | 33737 ft | 438 kts | 273° |
| 2026-04-23 19:48 | 47.15496 | -103.91535 | 33747 ft | 439 kts | 273° |
| 2026-04-23 19:48 | 47.16137 | -104.00460 | 33747 ft | 440 kts | 273° |
| 2026-04-23 19:49 | 47.16771 | -104.09350 | 33761 ft | 441 kts | 273° |
| 2026-04-23 19:49 | 47.17400 | -104.18309 | 33749 ft | 441 kts | 274° |
| 2026-04-23 19:50 | 47.18023 | -104.27267 | 33749 ft | 440 kts | 273° |
| 2026-04-23 19:50 | 47.18639 | -104.36203 | 33743 ft | 439 kts | 273° |
| 2026-04-23 19:51 | 47.19246 | -104.45111 | 33747 ft | 437 kts | 273° |
| 2026-04-23 19:51 | 47.19840 | -104.53943 | 33747 ft | 436 kts | 273° |
| 2026-04-23 19:52 | 47.20330 | -104.61314 | 33750 ft | 435 kts | 273° |
| 2026-04-23 19:52 | 47.21008 | -104.71640 | 33761 ft | 434 kts | 273° |
| 2026-04-23 19:53 | 47.21579 | -104.80461 | 33762 ft | 433 kts | 273° |
| 2026-04-23 19:53 | 47.22140 | -104.89210 | 33755 ft | 432 kts | 273° |
| 2026-04-23 19:54 | 47.22696 | -104.98007 | 33749 ft | 432 kts | 273° |
| 2026-04-23 19:54 | 47.23245 | -105.06792 | 33754 ft | 431 kts | 273° |
| 2026-04-23 19:55 | 47.23786 | -105.15565 | 33759 ft | 430 kts | 273° |
| 2026-04-23 19:55 | 47.24318 | -105.24287 | 33771 ft | 431 kts | 273° |
| 2026-04-23 19:56 | 47.24847 | -105.33067 | 33770 ft | 431 kts | 273° |
| 2026-04-23 19:56 | 47.25367 | -105.41840 | 33770 ft | 430 kts | 273° |
| 2026-04-23 19:57 | 47.25882 | -105.50616 | 33757 ft | 430 kts | 273° |
| 2026-04-23 19:57 | 47.26305 | -105.57907 | 33782 ft | 430 kts | 272° |
| 2026-04-23 19:58 | 47.26888 | -105.68092 | 33785 ft | 429 kts | 272° |
| 2026-04-23 19:58 | 47.27380 | -105.76850 | 33793 ft | 429 kts | 272° |
| 2026-04-23 19:59 | 47.27867 | -105.85611 | 33795 ft | 429 kts | 272° |
| 2026-04-23 19:59 | 47.28342 | -105.94289 | 33803 ft | 428 kts | 272° |
| 2026-04-23 20:00 | 47.28814 | -106.03027 | 33821 ft | 428 kts | 272° |
| 2026-04-23 20:00 | 47.29280 | -106.11762 | 33824 ft | 428 kts | 272° |
| 2026-04-23 20:01 | 47.29739 | -106.20500 | 33827 ft | 428 kts | 272° |
| 2026-04-23 20:01 | 47.30187 | -106.29176 | 33824 ft | 428 kts | 272° |
| 2026-04-23 20:02 | 47.30632 | -106.37908 | 33822 ft | 428 kts | 272° |
| 2026-04-23 20:02 | 47.31070 | -106.46646 | 33826 ft | 427 kts | 272° |
| 2026-04-23 20:03 | 47.31501 | -106.55371 | 33834 ft | 427 kts | 272° |
| 2026-04-23 20:03 | 47.31925 | -106.64094 | 33833 ft | 427 kts | 272° |
| 2026-04-23 20:04 | 47.32340 | -106.72762 | 33834 ft | 426 kts | 271° |
| 2026-04-23 20:04 | 47.32749 | -106.81472 | 33835 ft | 426 kts | 271° |
| 2026-04-23 20:05 | 47.33086 | -106.88711 | 33834 ft | 426 kts | 271° |
| 2026-04-23 20:05 | 47.33485 | -106.97439 | 33834 ft | 427 kts | 271° |
| 2026-04-23 20:06 | 47.33947 | -107.07568 | 33829 ft | 426 kts | 271° |
| 2026-04-23 20:06 | 47.34333 | -107.16280 | 33843 ft | 426 kts | 271° |
| 2026-04-23 20:07 | 47.34644 | -107.23518 | 33826 ft | 426 kts | 271° |
| 2026-04-23 20:07 | 47.35085 | -107.33649 | 33828 ft | 427 kts | 271° |
| 2026-04-23 20:08 | 47.35439 | -107.42373 | 33835 ft | 428 kts | 271° |
| 2026-04-23 20:08 | 47.35794 | -107.51135 | 33836 ft | 429 kts | 271° |
| 2026-04-23 20:09 | 47.36087 | -107.58444 | 33833 ft | 430 kts | 271° |
| 2026-04-23 20:09 | 47.36491 | -107.68676 | 33839 ft | 430 kts | 270° |
| 2026-04-23 20:10 | 47.36778 | -107.76062 | 33832 ft | 431 kts | 270° |
| 2026-04-23 20:10 | 47.37112 | -107.84817 | 33832 ft | 431 kts | 270° |
| 2026-04-23 20:11 | 47.37441 | -107.93643 | 33834 ft | 431 kts | 270° |
| 2026-04-23 20:11 | 47.37762 | -108.02454 | 33843 ft | 430 kts | 270° |
| 2026-04-23 20:12 | 47.38078 | -108.11264 | 33843 ft | 429 kts | 270° |
| 2026-04-23 20:12 | 47.38382 | -108.19971 | 33841 ft | 429 kts | 270° |
| 2026-04-23 20:13 | 47.38682 | -108.28755 | 33850 ft | 428 kts | 270° |
| 2026-04-23 20:13 | 47.39023 | -108.38948 | 33847 ft | 428 kts | 270° |
| 2026-04-23 20:14 | 47.39290 | -108.46278 | 33857 ft | 427 kts | 272° |
| 2026-04-23 20:14 | 47.39621 | -108.54970 | 33854 ft | 427 kts | 269° |
| 2026-04-23 20:15 | 47.39848 | -108.63722 | 33864 ft | 427 kts | 269° |
| 2026-04-23 20:15 | 47.40088 | -108.72465 | 33870 ft | 426 kts | 269° |
| 2026-04-23 20:16 | 47.40339 | -108.81202 | 33868 ft | 426 kts | 269° |
| 2026-04-23 20:16 | 47.40590 | -108.89946 | 33871 ft | 426 kts | 269° |
| 2026-04-23 20:17 | 47.40834 | -108.98625 | 33869 ft | 426 kts | 269° |
| 2026-04-23 20:17 | 47.41069 | -109.07370 | 33869 ft | 426 kts | 269° |
| 2026-04-23 20:18 | 47.41299 | -109.16089 | 33869 ft | 426 kts | 269° |
| 2026-04-23 20:18 | 47.41532 | -109.24829 | 33873 ft | 427 kts | 269° |
| 2026-04-23 20:19 | 47.41750 | -109.33529 | 33880 ft | 427 kts | 269° |
| 2026-04-23 20:19 | 47.41961 | -109.42304 | 33881 ft | 428 kts | 269° |
| 2026-04-23 20:20 | 47.42168 | -109.51066 | 33880 ft | 429 kts | 269° |
| 2026-04-23 20:20 | 47.42364 | -109.59809 | 33878 ft | 429 kts | 268° |
| 2026-04-23 20:21 | 47.42558 | -109.68626 | 33908 ft | 430 kts | 268° |
| 2026-04-23 20:21 | 47.42746 | -109.77418 | 33915 ft | 430 kts | 268° |
| 2026-04-23 20:22 | 47.42930 | -109.86229 | 33930 ft | 430 kts | 268° |
| 2026-04-23 20:22 | 47.43103 | -109.94993 | 33933 ft | 430 kts | 268° |
| 2026-04-23 20:23 | 47.43272 | -110.03793 | 33934 ft | 430 kts | 268° |
| 2026-04-23 20:23 | 47.43429 | -110.12629 | 33939 ft | 431 kts | 268° |
| 2026-04-23 20:24 | 47.43583 | -110.21466 | 33942 ft | 430 kts | 268° |
| 2026-04-23 20:24 | 47.43730 | -110.30290 | 33954 ft | 431 kts | 268° |
| 2026-04-23 20:25 | 47.43869 | -110.39058 | 33937 ft | 430 kts | 268° |
| 2026-04-23 20:25 | 47.44003 | -110.47886 | 33936 ft | 429 kts | 268° |
| 2026-04-23 20:26 | 47.44128 | -110.56680 | 33948 ft | 427 kts | 268° |
| 2026-04-23 20:26 | 47.44247 | -110.65443 | 33960 ft | 426 kts | 268° |
| 2026-04-23 20:27 | 47.44359 | -110.74129 | 33961 ft | 425 kts | 268° |
| 2026-04-23 20:27 | 47.44464 | -110.82848 | 33963 ft | 424 kts | 268° |
| 2026-04-23 20:28 | 47.44563 | -110.91563 | 33960 ft | 424 kts | 268° |
| 2026-04-23 20:28 | 47.44654 | -111.00198 | 33968 ft | 423 kts | 268° |
| 2026-04-23 20:29 | 47.44739 | -111.08879 | 33970 ft | 423 kts | 268° |
| 2026-04-23 20:29 | 47.44818 | -111.17572 | 33967 ft | 423 kts | 268° |
| 2026-04-23 20:30 | 47.44890 | -111.26249 | 33963 ft | 423 kts | 268° |
| 2026-04-23 20:30 | 47.44988 | -111.39218 | 33977 ft | 423 kts | 268° |
| 2026-04-23 20:31 | 47.45098 | -111.47909 | 33983 ft | 424 kts | 269° |
| 2026-04-23 20:31 | 47.45275 | -111.56625 | 33980 ft | 424 kts | 269° |
| 2026-04-23 20:32 | 47.45450 | -111.65348 | 33986 ft | 425 kts | 269° |
| 2026-04-23 20:32 | 47.45608 | -111.74021 | 33978 ft | 426 kts | 269° |
| 2026-04-23 20:33 | 47.45757 | -111.82758 | 33981 ft | 426 kts | 269° |
| 2026-04-23 20:33 | 47.45898 | -111.91506 | 33989 ft | 426 kts | 269° |
| 2026-04-23 20:34 | 47.46031 | -112.00257 | 33976 ft | 426 kts | 269° |
| 2026-04-23 20:34 | 47.46159 | -112.09004 | 33983 ft | 426 kts | 269° |
| 2026-04-23 20:35 | 47.46280 | -112.17687 | 33981 ft | 425 kts | 269° |
| 2026-04-23 20:35 | 47.46393 | -112.26423 | 33982 ft | 425 kts | 269° |
| 2026-04-23 20:36 | 47.46498 | -112.35170 | 33981 ft | 425 kts | 269° |
| 2026-04-23 20:36 | 47.46599 | -112.43904 | 33982 ft | 425 kts | 269° |
| 2026-04-23 20:37 | 47.46692 | -112.52578 | 33981 ft | 425 kts | 269° |
| 2026-04-23 20:37 | 47.46780 | -112.61303 | 33981 ft | 425 kts | 269° |
| 2026-04-23 20:38 | 47.46860 | -112.70028 | 33981 ft | 424 kts | 269° |
| 2026-04-23 20:38 | 47.46935 | -112.78740 | 33980 ft | 424 kts | 270° |
| 2026-04-23 20:39 | 47.47002 | -112.87389 | 33986 ft | 423 kts | 270° |
| 2026-04-23 20:39 | 47.47062 | -112.96073 | 33997 ft | 423 kts | 270° |
| 2026-04-23 20:40 | 47.47116 | -113.04766 | 34004 ft | 423 kts | 270° |
| 2026-04-23 20:40 | 47.47164 | -113.13469 | 33991 ft | 424 kts | 270° |
| 2026-04-23 20:41 | 47.47205 | -113.22126 | 34002 ft | 424 kts | 270° |
| 2026-04-23 20:41 | 47.47239 | -113.30842 | 34005 ft | 424 kts | 270° |
| 2026-04-23 20:42 | 47.47268 | -113.39552 | 33998 ft | 424 kts | 270° |
| 2026-04-23 20:42 | 47.47291 | -113.48263 | 34005 ft | 424 kts | 270° |
| 2026-04-23 20:43 | 47.47303 | -113.56986 | 34009 ft | 425 kts | 270° |
| 2026-04-23 20:43 | 47.47310 | -113.65673 | 34008 ft | 426 kts | 270° |
| 2026-04-23 20:44 | 47.47312 | -113.74429 | 34006 ft | 427 kts | 270° |
| 2026-04-23 20:44 | 47.47306 | -113.83202 | 34006 ft | 427 kts | 270° |
| 2026-04-23 20:45 | 47.47295 | -113.91987 | 34019 ft | 427 kts | 270° |
| 2026-04-23 20:45 | 47.47276 | -114.00721 | 34024 ft | 428 kts | 270° |
| 2026-04-23 20:46 | 47.47250 | -114.09528 | 34012 ft | 429 kts | 270° |
| 2026-04-23 20:46 | 47.47218 | -114.18322 | 34021 ft | 428 kts | 270° |
| 2026-04-23 20:47 | 47.47179 | -114.27116 | 34017 ft | 427 kts | 270° |
| 2026-04-23 20:47 | 47.47134 | -114.35815 | 34011 ft | 426 kts | 270° |
| 2026-04-23 20:48 | 47.47082 | -114.44566 | 34019 ft | 425 kts | 270° |
| 2026-04-23 20:48 | 47.47023 | -114.53280 | 34012 ft | 424 kts | 270° |
| 2026-04-23 20:49 | 47.46958 | -114.61986 | 34017 ft | 423 kts | 270° |
| 2026-04-23 20:49 | 47.46887 | -114.70671 | 34025 ft | 422 kts | 270° |
| 2026-04-23 20:50 | 47.46811 | -114.79283 | 34020 ft | 421 kts | 271° |
| 2026-04-23 20:50 | 47.46726 | -114.87942 | 34019 ft | 421 kts | 271° |
| 2026-04-23 20:51 | 47.46637 | -114.96578 | 34034 ft | 421 kts | 271° |
| 2026-04-23 20:51 | 47.46541 | -115.05220 | 34027 ft | 420 kts | 271° |
| 2026-04-23 20:52 | 47.46438 | -115.13789 | 34024 ft | 420 kts | 271° |
| 2026-04-23 20:52 | 47.46328 | -115.22410 | 34021 ft | 420 kts | 271° |
| 2026-04-23 20:53 | 47.46211 | -115.31039 | 34008 ft | 420 kts | 271° |
| 2026-04-23 20:53 | 47.46089 | -115.39666 | 33991 ft | 420 kts | 271° |
| 2026-04-23 20:54 | 47.45961 | -115.48238 | 33969 ft | 420 kts | 271° |
| 2026-04-23 20:54 | 47.45827 | -115.56866 | 33957 ft | 419 kts | 271° |
| 2026-04-23 20:55 | 47.45686 | -115.65462 | 33952 ft | 419 kts | 271° |
| 2026-04-23 20:55 | 47.45540 | -115.74089 | 33950 ft | 421 kts | 271° |
| 2026-04-23 20:56 | 47.45392 | -115.82674 | 33938 ft | 421 kts | 271° |
| 2026-04-23 20:56 | 47.45241 | -115.91308 | 33943 ft | 420 kts | 271° |
| 2026-04-23 20:57 | 47.45084 | -115.99931 | 33953 ft | 420 kts | 271° |
| 2026-04-23 20:57 | 47.44918 | -116.08549 | 33963 ft | 420 kts | 271° |
| 2026-04-23 20:58 | 47.44704 | -116.17155 | 33973 ft | 419 kts | 271° |
| 2026-04-23 20:58 | 47.44475 | -116.25697 | 33977 ft | 419 kts | 271° |
| 2026-04-23 20:59 | 47.44235 | -116.34290 | 33985 ft | 418 kts | 271° |
| 2026-04-23 20:59 | 47.43985 | -116.42859 | 33992 ft | 418 kts | 271° |
| 2026-04-23 21:00 | 47.43715 | -116.51429 | 34004 ft | 417 kts | 271° |
| 2026-04-23 21:00 | 47.43433 | -116.59922 | 34013 ft | 417 kts | 271° |
| 2026-04-23 21:01 | 47.43133 | -116.68464 | 34032 ft | 417 kts | 271° |
| 2026-04-23 21:01 | 47.42816 | -116.77007 | 34043 ft | 416 kts | 271° |
| 2026-04-23 21:02 | 47.42479 | -116.85525 | 34045 ft | 416 kts | 271° |
| 2026-04-23 21:02 | 47.42124 | -116.93975 | 34028 ft | 415 kts | 271° |
| 2026-04-23 21:03 | 47.41747 | -117.02471 | 34029 ft | 414 kts | 271° |
| 2026-04-23 21:03 | 47.41351 | -117.10961 | 34028 ft | 414 kts | 271° |
| 2026-04-23 21:04 | 47.40936 | -117.19434 | 34030 ft | 413 kts | 271° |
| 2026-04-23 21:04 | 47.40501 | -117.27881 | 34044 ft | 413 kts | 271° |
| 2026-04-23 21:05 | 47.40055 | -117.36261 | 34036 ft | 412 kts | 271° |
| 2026-04-23 21:05 | 47.39594 | -117.44693 | 34030 ft | 412 kts | 271° |
| 2026-04-23 21:06 | 47.39122 | -117.53112 | 34024 ft | 412 kts | 271° |
| 2026-04-23 21:06 | 47.38639 | -117.61533 | 34026 ft | 412 kts | 271° |
| 2026-04-23 21:07 | 47.38149 | -117.69899 | 34028 ft | 412 kts | 271° |
| 2026-04-23 21:07 | 47.37627 | -117.78331 | 34034 ft | 413 kts | 271° |
| 2026-04-23 21:08 | 47.37085 | -117.86774 | 34034 ft | 414 kts | 271° |
| 2026-04-23 21:08 | 47.36531 | -117.95235 | 34025 ft | 415 kts | 271° |
| 2026-04-23 21:09 | 47.35969 | -118.03704 | 34031 ft | 415 kts | 271° |
| 2026-04-23 21:09 | 47.35393 | -118.12044 | 34036 ft | 416 kts | 271° |
| 2026-04-23 21:10 | 47.34770 | -118.20529 | 34046 ft | 416 kts | 271° |
| 2026-04-23 21:10 | 47.34132 | -118.28999 | 34030 ft | 417 kts | 271° |
| 2026-04-23 21:11 | 47.33478 | -118.37491 | 34050 ft | 416 kts | 271° |
| 2026-04-23 21:11 | 47.32816 | -118.45909 | 34051 ft | 416 kts | 271° |
| 2026-04-23 21:12 | 47.32136 | -118.54380 | 34056 ft | 417 kts | 271° |
| 2026-04-23 21:12 | 47.31443 | -118.62852 | 34065 ft | 417 kts | 271° |
| 2026-04-23 21:13 | 47.30733 | -118.71332 | 34065 ft | 417 kts | 271° |
| 2026-04-23 21:13 | 47.30012 | -118.79753 | 34066 ft | 417 kts | 271° |
| 2026-04-23 21:14 | 47.29271 | -118.88218 | 34070 ft | 417 kts | 271° |
| 2026-04-23 21:14 | 47.28512 | -118.96680 | 34073 ft | 417 kts | 271° |
| 2026-04-23 21:15 | 47.27738 | -119.05142 | 34073 ft | 417 kts | 271° |
| 2026-04-23 21:15 | 47.26953 | -119.13537 | 34074 ft | 417 kts | 271° |
| 2026-04-23 21:16 | 47.26150 | -119.21982 | 34081 ft | 417 kts | 271° |
| 2026-04-23 21:16 | 47.25335 | -119.30423 | 34074 ft | 417 kts | 271° |
| 2026-04-23 21:17 | 47.24510 | -119.38864 | 34081 ft | 417 kts | 271° |
| 2026-04-23 21:17 | 47.23678 | -119.47256 | 34073 ft | 417 kts | 271° |
| 2026-04-23 21:18 | 47.22833 | -119.55712 | 34074 ft | 418 kts | 271° |
| 2026-04-23 21:18 | 47.21977 | -119.64181 | 34065 ft | 419 kts | 271° |
| 2026-04-23 21:19 | 47.21106 | -119.72669 | 34064 ft | 419 kts | 271° |
| 2026-04-23 21:19 | 47.20231 | -119.81089 | 34062 ft | 420 kts | 271° |
| 2026-04-23 21:20 | 47.19344 | -119.89566 | 34068 ft | 420 kts | 271° |
| 2026-04-23 21:20 | 47.18453 | -119.98051 | 34065 ft | 420 kts | 271° |
| 2026-04-23 21:21 | 47.17561 | -120.06544 | 34069 ft | 421 kts | 271° |
| 2026-04-23 21:21 | 47.16668 | -120.15002 | 34068 ft | 422 kts | 271° |
| 2026-04-23 21:22 | 47.15766 | -120.23516 | 34064 ft | 421 kts | 271° |
| 2026-04-23 21:22 | 47.14865 | -120.32014 | 34071 ft | 421 kts | 271° |
| 2026-04-23 21:23 | 47.13971 | -120.40507 | 34072 ft | 421 kts | 271° |
| 2026-04-23 21:23 | 47.13720 | -120.44707 | 34070 ft | 389 kts | 292° |
| 2026-04-23 21:23 | 47.14466 | -120.48297 | 34078 ft | 355 kts | 310° |
| 2026-04-23 21:24 | 47.16004 | -120.50913 | 34103 ft | 340 kts | 322° |
| 2026-04-23 21:24 | 47.17781 | -120.53144 | 34083 ft | 330 kts | 327° |
| 2026-04-23 21:24 | 47.21523 | -120.56781 | 33956 ft | 318 kts | 330° |
| 2026-04-23 21:25 | 47.23388 | -120.58552 | 33368 ft | 321 kts | 330° |
| 2026-04-23 21:25 | 47.25270 | -120.60345 | 32759 ft | 323 kts | 329° |
| 2026-04-23 21:25 | 47.27152 | -120.62149 | 32284 ft | 322 kts | 329° |
| 2026-04-23 21:25 | 47.29015 | -120.63942 | 31921 ft | 317 kts | 329° |
| 2026-04-23 21:26 | 47.30844 | -120.65708 | 31553 ft | 312 kts | 328° |
| 2026-04-23 21:26 | 47.32630 | -120.67436 | 31130 ft | 310 kts | 328° |
| 2026-04-23 21:26 | 47.34423 | -120.69174 | 30697 ft | 308 kts | 328° |
| 2026-04-23 21:26 | 47.36203 | -120.70902 | 30258 ft | 306 kts | 328° |
| 2026-04-23 21:27 | 47.37974 | -120.72623 | 29839 ft | 303 kts | 327° |
| 2026-04-23 21:27 | 47.39725 | -120.74325 | 29442 ft | 299 kts | 327° |
| 2026-04-23 21:27 | 47.41455 | -120.76009 | 29021 ft | 297 kts | 327° |
| 2026-04-23 21:27 | 47.43172 | -120.77682 | 28629 ft | 294 kts | 327° |
| 2026-04-23 21:28 | 47.44876 | -120.79343 | 28167 ft | 294 kts | 327° |
| 2026-04-23 21:28 | 47.46555 | -120.80980 | 27726 ft | 291 kts | 327° |
| 2026-04-23 21:28 | 47.48236 | -120.82622 | 27321 ft | 289 kts | 327° |
| 2026-04-23 21:28 | 47.49909 | -120.84256 | 26929 ft | 287 kts | 327° |
| 2026-04-23 21:29 | 47.51567 | -120.85878 | 26555 ft | 284 kts | 327° |
| 2026-04-23 21:29 | 47.53211 | -120.87487 | 26119 ft | 283 kts | 327° |
| 2026-04-23 21:29 | 47.54853 | -120.89095 | 25676 ft | 282 kts | 327° |
| 2026-04-23 21:29 | 47.56484 | -120.90694 | 25296 ft | 281 kts | 327° |
| 2026-04-23 21:30 | 47.58105 | -120.92284 | 24916 ft | 279 kts | 327° |
| 2026-04-23 21:30 | 47.59696 | -120.93847 | 24534 ft | 277 kts | 327° |
| 2026-04-23 21:30 | 47.61300 | -120.95423 | 24122 ft | 277 kts | 327° |
| 2026-04-23 21:30 | 47.62895 | -120.96991 | 23773 ft | 274 kts | 327° |
| 2026-04-23 21:31 | 47.64476 | -120.98546 | 23384 ft | 272 kts | 327° |
| 2026-04-23 21:31 | 47.66052 | -121.00097 | 22969 ft | 271 kts | 327° |
| 2026-04-23 21:31 | 47.67616 | -121.01639 | 22548 ft | 269 kts | 327° |
| 2026-04-23 21:31 | 47.69170 | -121.03172 | 22166 ft | 267 kts | 327° |
| 2026-04-23 21:32 | 47.70715 | -121.04698 | 21778 ft | 266 kts | 327° |
| 2026-04-23 21:32 | 47.72252 | -121.06217 | 21398 ft | 265 kts | 327° |
| 2026-04-23 21:32 | 47.73784 | -121.07731 | 21010 ft | 264 kts | 327° |
| 2026-04-23 21:32 | 47.75290 | -121.09220 | 20640 ft | 262 kts | 327° |
| 2026-04-23 21:33 | 47.76807 | -121.10719 | 20183 ft | 263 kts | 327° |
| 2026-04-23 21:33 | 47.78327 | -121.12228 | 19768 ft | 263 kts | 327° |
| 2026-04-23 21:33 | 47.79847 | -121.13736 | 19410 ft | 262 kts | 327° |
| 2026-04-23 21:33 | 47.81358 | -121.15234 | 19122 ft | 259 kts | 327° |
| 2026-04-23 21:34 | 47.82833 | -121.16708 | 18878 ft | 253 kts | 324° |
| 2026-04-23 21:34 | 47.84009 | -121.18657 | 18599 ft | 259 kts | 305° |
| 2026-04-23 21:34 | 47.84745 | -121.21112 | 18372 ft | 267 kts | 295° |
| 2026-04-23 21:34 | 47.85042 | -121.23864 | 18112 ft | 283 kts | 278° |
| 2026-04-23 21:35 | 47.84879 | -121.26824 | 17911 ft | 290 kts | 274° |
| 2026-04-23 21:35 | 47.84620 | -121.29831 | 17637 ft | 294 kts | 272° |
| 2026-04-23 21:35 | 47.84337 | -121.32841 | 17380 ft | 293 kts | 272° |
| 2026-04-23 21:35 | 47.84056 | -121.35825 | 17134 ft | 290 kts | 271° |
| 2026-04-23 21:36 | 47.83514 | -121.41706 | 16330 ft | 284 kts | 272° |
| 2026-04-23 21:36 | 47.83252 | -121.44615 | 15973 ft | 282 kts | 271° |
| 2026-04-23 21:36 | 47.82994 | -121.47503 | 15629 ft | 282 kts | 271° |
| 2026-04-23 21:37 | 47.82739 | -121.50354 | 15302 ft | 283 kts | 271° |
| 2026-04-23 21:37 | 47.82482 | -121.53253 | 14930 ft | 283 kts | 271° |
| 2026-04-23 21:37 | 47.82225 | -121.56153 | 14596 ft | 281 kts | 271° |
| 2026-04-23 21:37 | 47.81969 | -121.59026 | 14258 ft | 279 kts | 271° |
| 2026-04-23 21:38 | 47.81715 | -121.61871 | 13945 ft | 276 kts | 270° |
| 2026-04-23 21:38 | 47.81466 | -121.64687 | 13621 ft | 275 kts | 270° |
| 2026-04-23 21:38 | 47.81214 | -121.67505 | 13279 ft | 274 kts | 270° |
| 2026-04-23 21:38 | 47.80964 | -121.70261 | 12975 ft | 272 kts | 269° |
| 2026-04-23 21:39 | 47.80713 | -121.73047 | 12658 ft | 271 kts | 269° |
| 2026-04-23 21:39 | 47.80466 | -121.75790 | 12295 ft | 264 kts | 269° |
| 2026-04-23 21:39 | 47.80224 | -121.78457 | 12012 ft | 256 kts | 269° |
| 2026-04-23 21:39 | 47.79989 | -121.81053 | 11687 ft | 250 kts | 269° |
| 2026-04-23 21:40 | 47.79760 | -121.83589 | 11401 ft | 245 kts | 268° |
| 2026-04-23 21:40 | 47.79533 | -121.86091 | 11113 ft | 244 kts | 268° |
| 2026-04-23 21:40 | 47.79305 | -121.88613 | 10819 ft | 250 kts | 267° |
| 2026-04-23 21:40 | 47.79071 | -121.91216 | 10541 ft | 265 kts | 266° |
| 2026-04-23 21:41 | 47.78823 | -121.93945 | 10195 ft | 266 kts | 266° |
| 2026-04-23 21:41 | 47.78591 | -121.96603 | 10032 ft | 251 kts | 270° |
| 2026-04-23 21:41 | 47.78881 | -121.99074 | 9693 ft | 239 kts | 300° |
| 2026-04-23 21:41 | 47.79971 | -122.00872 | 9469 ft | 236 kts | 329° |
| 2026-04-23 21:42 | 47.81515 | -122.01640 | 9351 ft | 237 kts | 351° |
| 2026-04-23 21:42 | 47.83153 | -122.01412 | 9253 ft | 251 kts | 19° |
| 2026-04-23 21:42 | 47.84661 | -121.99877 | 9023 ft | 273 kts | 48° |
| 2026-04-23 21:42 | 47.85555 | -121.97368 | 8784 ft | 282 kts | 76° |
| 2026-04-23 21:43 | 47.85598 | -121.94494 | 8536 ft | 284 kts | 103° |
| 2026-04-23 21:43 | 47.84770 | -121.91864 | 8282 ft | 281 kts | 130° |
| 2026-04-23 21:43 | 47.83260 | -121.90106 | 8025 ft | 276 kts | 158° |
| 2026-04-23 21:43 | 47.81414 | -121.89589 | 7765 ft | 270 kts | 186° |
| 2026-04-23 21:44 | 47.79655 | -121.90393 | 7513 ft | 264 kts | 214° |
| 2026-04-23 21:44 | 47.78452 | -121.92368 | 7246 ft | 259 kts | 249° |
| 2026-04-23 21:44 | 47.78159 | -121.94957 | 7034 ft | 254 kts | 269° |
| 2026-04-23 21:44 | 47.78097 | -121.97595 | 6785 ft | 257 kts | 268° |
| 2026-04-23 21:45 | 47.77994 | -122.00259 | 6541 ft | 259 kts | 266° |
| 2026-04-23 21:45 | 47.77847 | -122.02881 | 6289 ft | 257 kts | 265° |
| 2026-04-23 21:45 | 47.77663 | -122.05522 | 6060 ft | 255 kts | 264° |
| 2026-04-23 21:45 | 47.77457 | -122.08146 | 6012 ft | 257 kts | 263° |
| 2026-04-23 21:46 | 47.77236 | -122.10774 | 5989 ft | 256 kts | 263° |
| 2026-04-23 21:46 | 47.77006 | -122.13390 | 5983 ft | 254 kts | 263° |
| 2026-04-23 21:46 | 47.76770 | -122.15988 | 5984 ft | 254 kts | 263° |
| 2026-04-23 21:46 | 47.76531 | -122.18586 | 5990 ft | 255 kts | 262° |
| 2026-04-23 21:47 | 47.76286 | -122.21200 | 5989 ft | 256 kts | 262° |
| 2026-04-23 21:47 | 47.76043 | -122.23780 | 5993 ft | 256 kts | 262° |
| 2026-04-23 21:47 | 47.75796 | -122.26394 | 5993 ft | 256 kts | 262° |
| 2026-04-23 21:47 | 47.75321 | -122.28935 | 5877 ft | 260 kts | 238° |
| 2026-04-23 21:48 | 47.73994 | -122.30693 | 5717 ft | 261 kts | 204° |
| 2026-04-23 21:48 | 47.72225 | -122.31347 | 5424 ft | 260 kts | 189° |
| 2026-04-23 21:48 | 47.70464 | -122.31578 | 5084 ft | 248 kts | 183° |
| 2026-04-23 21:48 | 47.68779 | -122.31622 | 4759 ft | 237 kts | 181° |
| 2026-04-23 21:49 | 47.67167 | -122.31626 | 4437 ft | 226 kts | 181° |
| 2026-04-23 21:49 | 47.65635 | -122.31631 | 4148 ft | 215 kts | 181° |
| 2026-04-23 21:49 | 47.64178 | -122.31642 | 3865 ft | 204 kts | 181° |
| 2026-04-23 21:49 | 47.62796 | -122.31653 | 3604 ft | 193 kts | 181° |
| 2026-04-23 21:50 | 47.61493 | -122.31664 | 3372 ft | 185 kts | 181° |
| 2026-04-23 21:50 | 47.60220 | -122.31675 | 3122 ft | 183 kts | 181° |
| 2026-04-23 21:50 | 47.58951 | -122.31682 | 2881 ft | 183 kts | 181° |
| 2026-04-23 21:50 | 47.57704 | -122.31699 | 2625 ft | 176 kts | 182° |
| 2026-04-23 21:51 | 47.56493 | -122.31708 | 2413 ft | 173 kts | 181° |
| 2026-04-23 21:51 | 47.55331 | -122.31715 | 2208 ft | 161 kts | 181° |
| 2026-04-23 21:51 | 47.54247 | -122.31724 | 1968 ft | 150 kts | 181° |
| 2026-04-23 21:51 | 47.53219 | -122.31733 | 1800 ft | 149 kts | 181° |
| 2026-04-23 21:52 | 47.52169 | -122.31742 | 1581 ft | 148 kts | 181° |
| 2026-04-23 21:52 | 47.51169 | -122.31750 | 1374 ft | 145 kts | 180° |
| 2026-04-23 21:52 | 47.50169 | -122.31741 | 1217 ft | 143 kts | 181° |
| 2026-04-23 21:52 | 47.49160 | -122.31771 | 1006 ft | 144 kts | 182° |
| 2026-04-23 21:53 | 47.48171 | -122.31784 | 821 ft | 141 kts | 181° |
| 2026-04-23 21:53 | 47.47184 | -122.31790 | 616 ft | 141 kts | 182° |
| 2026-04-23 21:53 | 47.46201 | -122.31790 | 420 ft | 140 kts | 180° |
| 2026-04-23 21:53 | 47.45359 | -122.31797 | 394 ft | 97 kts | 180° |
| 2026-04-23 21:54 | 47.44884 | -122.31804 | 390 ft | 39 kts | 179° |
| 2026-04-23 21:54 | 47.44671 | -122.31780 | 383 ft | 31 kts | 166° |
| 2026-04-23 21:54 | 47.44509 | -122.31679 | 375 ft | 19 kts | 150° |
| 2026-04-23 21:54 | 47.44398 | -122.31586 | 373 ft | 18 kts | 150° |
| 2026-04-23 21:55 | 47.44294 | -122.31486 | 376 ft | 18 kts | 136° |
| 2026-04-23 21:55 | 47.44229 | -122.31340 | 379 ft | 17 kts | 110° |
| 2026-04-23 21:55 | 47.44200 | -122.31196 | 382 ft | 14 kts | 115° |
| 2026-04-23 21:55 | 47.44141 | -122.31084 | 382 ft | 14 kts | 141° |
| 2026-04-23 21:56 | 47.44061 | -122.31015 | 380 ft | 13 kts | 151° |
| 2026-04-23 21:56 | 47.43982 | -122.30950 | 378 ft | 13 kts | 151° |
| 2026-04-23 21:56 | 47.43918 | -122.30864 | 379 ft | 13 kts | 119° |
| 2026-04-23 21:56 | 47.43901 | -122.30740 | 379 ft | 12 kts | 92° |
| 2026-04-23 21:57 | 47.43929 | -122.30643 | 380 ft | 9 kts | 26° |
| 2026-04-23 21:57 | 47.43987 | -122.30636 | 382 ft | 8 kts | 359° |
| 2026-04-23 21:57 | 47.44061 | -122.30636 | 384 ft | 14 kts | 1° |
| 2026-04-23 21:57 | 47.44180 | -122.30634 | 387 ft | 20 kts | 0° |
| 2026-04-23 21:58 | 47.44338 | -122.30633 | 392 ft | 24 kts | 360° |
| 2026-04-23 21:58 | 47.44500 | -122.30631 | 396 ft | 23 kts | 0° |
| 2026-04-23 21:58 | 47.44620 | -122.30593 | 398 ft | 14 kts | 20° |
| 2026-04-23 21:58 | 47.44707 | -122.30546 | 403 ft | 13 kts | 17° |
| 2026-04-23 21:59 | 47.44776 | -122.30538 | 405 ft | 8 kts | 6° |
| 2026-04-23 21:59 | 47.44802 | -122.30477 | 407 ft | 8 kts | 90° |
| 2026-04-23 21:59 | 47.44780 | -122.30410 | 404 ft | 7 kts | 129° |
| 2026-04-23 22:00 | 47.44715 | -122.30296 | 405 ft | 7 kts | 129° |
| 2026-04-23 22:00 | 47.44688 | -122.30233 | 405 ft | 7 kts | 115° |
| 2026-04-23 22:00 | 47.44673 | -122.30165 | 404 ft | 7 kts | 102° |
| 2026-04-23 22:00 | 47.44673 | -122.30098 | 404 ft | 6 kts | 81° |
| 2026-04-23 22:01 | 47.44691 | -122.30051 | 405 ft | 4 kts | 53° |
| 2026-04-23 22:01 | 47.44703 | -122.30015 | 405 ft | 4 kts | 82° |
| 2026-04-23 22:01 | 47.44688 | -122.29989 | 405 ft | 3 kts | 147° |
| 2026-04-23 22:01 | 47.44675 | -122.29982 | 405 ft | 1 kts | 165° |
| 2026-04-23 22:02 | 47.44674 | -122.29982 | 405 ft | 0 kts | 165° |
| 2026-04-23 22:02 | 47.44672 | -122.29981 | 405 ft | 0 kts | 165° |
| 2026-04-23 22:03 | 47.44668 | -122.29979 | 405 ft | 0 kts | 165° |